createdAt,value
2017-10-09T00:01:28.892Z,100119.59
2017-10-09T00:03:55.764Z,100124.38
2017-10-09T00:06:22.704Z,100121.46
2017-10-09T00:08:50.488Z,100116.80
2017-10-09T00:11:17.271Z,100119.39
2017-10-09T00:13:44.152Z,100117.70
2017-10-09T00:16:11.015Z,100110.90
2017-10-09T00:18:37.805Z,100101.59
2017-10-09T00:21:04.608Z,100106.68
2017-10-09T00:23:31.490Z,100109.29
2017-10-09T00:25:58.287Z,100103.84
2017-10-09T00:28:27.023Z,100113.97
2017-10-09T00:30:56.638Z,100111.39
2017-10-09T00:33:23.508Z,100110.22
2017-10-09T00:35:57.108Z,100113.19
2017-10-09T00:38:24.665Z,100116.61
2017-10-09T00:40:51.445Z,100110.31
2017-10-09T00:43:19.934Z,100105.66
2017-10-09T00:45:46.678Z,100109.53
2017-10-09T00:48:13.473Z,100119.20
2017-10-09T00:50:40.578Z,100119.23
2017-10-09T00:53:08.468Z,100121.31
2017-10-09T00:55:35.393Z,100123.47
2017-10-09T00:58:02.191Z,100128.52
2017-10-09T01:00:29.097Z,100126.80
2017-10-09T01:02:55.916Z,100117.91
2017-10-09T01:05:24.577Z,100129.78
2017-10-09T01:07:51.402Z,100126.38
2017-10-09T01:10:18.336Z,100133.50
2017-10-09T01:12:45.237Z,100128.45
2017-10-09T01:15:12.057Z,100127.63
2017-10-09T01:17:38.951Z,100135.27
2017-10-09T01:20:06.787Z,100142.02
2017-10-09T01:22:33.755Z,100134.41
2017-10-09T01:25:00.571Z,100145.36
2017-10-09T01:27:27.471Z,100144.89
2017-10-09T01:29:54.306Z,100122.58
2017-10-09T01:32:21.191Z,100164.76
2017-10-09T01:34:49.001Z,100162.19
2017-10-09T01:37:15.817Z,100164.38
2017-10-09T01:39:42.673Z,100164.80
2017-10-09T01:42:09.626Z,100177.49
2017-10-09T01:44:36.544Z,100180.13
2017-10-09T01:47:03.318Z,100171.28
2017-10-09T01:49:30.193Z,100176.30
2017-10-09T01:51:56.969Z,100169.98
2017-10-09T01:54:23.780Z,100171.25
2017-10-09T01:56:50.768Z,100174.66
2017-10-09T01:59:17.564Z,100173.80
2017-10-09T02:01:44.490Z,100166.59
2017-10-09T02:04:11.464Z,100165.16
2017-10-09T02:06:38.290Z,100169.77
2017-10-09T02:09:05.167Z,100158.31
2017-10-09T02:11:32.067Z,100156.53
2017-10-09T02:13:58.930Z,100159.45
2017-10-09T02:16:25.742Z,100156.85
2017-10-09T02:18:54.447Z,100153.04
2017-10-09T02:21:22.314Z,100150.81
2017-10-09T02:23:49.195Z,100143.09
2017-10-09T02:26:17.148Z,100137.58
2017-10-09T02:28:44.041Z,100141.40
2017-10-09T02:31:10.843Z,100142.16
2017-10-09T02:33:40.228Z,100135.75
2017-10-09T02:36:07.175Z,100137.84
2017-10-09T02:38:33.986Z,100140.78
2017-10-09T02:41:00.957Z,100136.12
2017-10-09T02:43:27.811Z,100140.35
2017-10-09T02:45:54.620Z,100146.23
2017-10-09T02:48:21.456Z,100141.17
2017-10-09T02:50:48.439Z,100143.75
2017-10-09T02:53:15.244Z,100143.75
2017-10-09T02:55:42.306Z,100151.84
2017-10-09T02:58:09.074Z,100149.26
2017-10-09T03:00:35.875Z,100152.05
2017-10-09T03:03:02.790Z,100155.00
2017-10-09T03:05:29.580Z,100161.35
2017-10-09T03:07:56.344Z,100163.50
2017-10-09T03:10:24.052Z,100162.26
2017-10-09T03:12:50.874Z,100162.77
2017-10-09T03:15:17.670Z,100170.83
2017-10-09T03:17:45.445Z,100168.76
2017-10-09T03:20:12.326Z,100171.31
2017-10-09T03:22:54.650Z,100162.84
2017-10-09T03:25:21.503Z,100164.64
2017-10-09T03:27:54.317Z,100172.69
2017-10-09T03:30:21.397Z,100174.00
2017-10-09T03:32:48.333Z,100170.22
2017-10-09T03:35:15.227Z,100174.55
2017-10-09T03:37:45.531Z,100181.45
2017-10-09T03:40:12.298Z,100188.70
2017-10-09T03:42:39.202Z,100190.87
2017-10-09T03:45:07.058Z,100187.52
2017-10-09T03:47:34.514Z,100191.43
2017-10-09T03:50:01.309Z,100200.36
2017-10-09T03:52:31.064Z,100199.09
2017-10-09T03:54:57.953Z,100203.77
2017-10-09T03:57:24.832Z,100198.66
2017-10-09T03:59:51.777Z,100203.30
2017-10-09T04:02:20.027Z,100200.34
2017-10-09T04:04:46.931Z,100196.47
2017-10-09T04:07:13.936Z,100207.06
2017-10-09T04:09:40.837Z,100208.34
2017-10-09T04:12:07.585Z,100203.16
2017-10-09T04:14:34.447Z,100209.48
2017-10-09T04:17:01.395Z,100211.57
2017-10-09T04:19:28.132Z,100209.96
2017-10-09T04:21:56.879Z,100215.44
2017-10-09T04:24:23.702Z,100219.59
2017-10-09T04:26:50.625Z,100221.34
2017-10-09T04:29:17.657Z,100218.81
2017-10-09T04:31:44.623Z,100223.44
2017-10-09T04:34:11.519Z,100230.23
2017-10-09T04:36:40.254Z,100234.83
2017-10-09T04:39:07.145Z,100227.64
2017-10-09T04:41:35.174Z,100238.27
2017-10-09T04:44:03.464Z,100229.72
2017-10-09T04:46:30.424Z,100238.17
2017-10-09T04:48:58.742Z,100223.22
2017-10-09T04:51:25.765Z,100235.77
2017-10-09T04:53:52.534Z,100242.34
2017-10-09T04:56:19.305Z,100241.73
2017-10-09T04:58:47.152Z,100235.00
2017-10-09T05:01:13.883Z,100241.92
2017-10-09T05:03:40.832Z,100237.47
2017-10-09T05:06:07.841Z,100240.12
2017-10-09T05:08:34.582Z,100239.44
2017-10-09T05:11:12.883Z,100249.50
2017-10-09T05:16:36.963Z,100257.64
2017-10-09T05:19:14.048Z,100251.80
2017-10-09T05:21:51.576Z,100254.42
2017-10-09T05:24:20.997Z,100249.81
2017-10-09T05:26:49.710Z,100248.22
2017-10-09T05:29:20.120Z,100249.47
2017-10-09T05:31:48.602Z,100258.09
2017-10-09T05:34:17.622Z,100258.86
2017-10-09T05:36:46.181Z,100266.51
2017-10-09T17:31:10.080Z,100594.19
2017-10-09T17:33:37.721Z,100595.20
2017-10-09T17:36:05.022Z,100589.67
2017-10-09T17:38:34.319Z,100594.19
2017-10-09T17:41:01.474Z,100596.78
2017-10-09T17:43:28.610Z,100598.67
2017-10-09T17:45:56.871Z,100599.30
2017-10-09T17:48:24.100Z,100594.40
2017-10-09T17:50:52.888Z,100596.30
2017-10-09T17:53:26.520Z,100596.49
2017-10-09T17:55:54.505Z,100602.97
2017-10-09T17:58:36.905Z,100608.14
2017-10-09T18:01:07.081Z,100608.91
2017-10-09T18:03:33.989Z,100608.07
2017-10-09T18:06:04.544Z,100615.34
2017-10-09T18:08:31.493Z,100615.80
2017-10-09T18:10:58.824Z,100619.67
2017-10-09T18:13:25.832Z,100625.28
2017-10-09T18:15:52.945Z,100624.89
2017-10-09T18:18:24.027Z,100578.94
2017-10-09T18:20:54.510Z,100628.41
2017-10-09T18:23:21.502Z,100631.42
2017-10-09T18:25:49.338Z,100631.44
2017-10-09T18:28:16.953Z,100631.88
2017-10-09T18:30:54.632Z,100641.23
2017-10-09T18:33:24.346Z,100645.61
2017-10-09T18:35:51.414Z,100640.47
2017-10-09T18:38:18.421Z,100650.30
2017-10-09T18:40:48.328Z,100656.67
2017-10-09T18:43:16.447Z,100653.64
2017-10-09T18:45:43.490Z,100659.55
2017-10-09T18:48:11.536Z,100659.58
2017-10-09T18:50:38.931Z,100653.75
2017-10-09T18:53:06.062Z,100651.23
2017-10-09T18:55:36.852Z,100657.66
2017-10-09T18:58:03.867Z,100660.32
2017-10-09T19:00:30.904Z,100662.12
2017-10-09T19:02:58.015Z,100660.02
2017-10-09T19:05:25.034Z,100662.98
2017-10-09T19:07:53.246Z,100661.77
2017-10-09T19:10:25.428Z,100669.08
2017-10-09T19:12:52.539Z,100667.32
2017-10-09T19:15:19.589Z,100657.64
2017-10-09T19:17:49.674Z,100678.44
2017-10-09T19:20:16.708Z,100680.17
2017-10-09T19:22:44.637Z,100679.39
2017-10-09T19:25:13.685Z,100687.91
2017-10-09T19:27:40.628Z,100680.66
2017-10-09T19:30:07.771Z,100680.61
2017-10-09T19:32:35.813Z,100681.05
2017-10-09T19:35:02.859Z,100675.59
2017-10-09T19:37:29.925Z,100686.59
2017-10-09T19:39:58.040Z,100679.22
2017-10-09T19:42:25.049Z,100686.06
2017-10-09T19:44:52.014Z,100683.47
2017-10-09T19:47:21.065Z,100684.51
2017-10-09T19:49:48.074Z,100689.55
2017-10-09T19:52:14.943Z,100686.59
2017-10-09T19:54:43.238Z,100670.95
2017-10-09T19:57:10.531Z,100680.11
2017-10-09T19:59:37.793Z,100676.20
2017-10-09T20:02:06.518Z,100680.87
2017-10-09T20:07:56.550Z,100681.67
2017-10-09T20:10:38.831Z,100529.66
2017-10-09T20:13:10.322Z,100672.25
2017-10-09T20:15:37.551Z,100679.42
2017-10-09T20:24:10.036Z,100684.83
2017-10-09T20:26:45.295Z,100684.79
2017-10-09T20:29:21.673Z,100685.61
2017-10-09T20:31:49.066Z,100689.45
2017-10-09T20:34:26.870Z,100689.97
2017-10-09T20:37:01.596Z,100687.44
2017-10-09T20:39:36.355Z,100691.30
2017-10-09T20:42:11.616Z,100689.97
2017-10-09T20:44:48.214Z,100686.89
2017-10-09T20:47:22.819Z,100688.69
2017-10-09T20:49:49.622Z,100685.75
2017-10-09T20:52:16.389Z,100684.67
2017-10-09T20:54:52.578Z,100686.42
2017-10-09T20:57:27.412Z,100681.70
2017-10-09T20:59:54.270Z,100686.48
2017-10-09T21:02:29.668Z,100685.70
2017-10-09T21:05:04.349Z,100683.54
2017-10-09T21:07:39.734Z,100675.89
2017-10-09T21:10:14.389Z,100689.20
2017-10-09T21:12:49.860Z,100679.47
2017-10-09T21:15:27.929Z,100684.20
2017-10-09T21:18:02.874Z,100678.28
2017-10-09T21:20:38.737Z,100671.94
2017-10-09T21:23:15.878Z,100674.00
2017-10-09T21:25:51.558Z,100677.80
2017-10-09T21:28:26.582Z,100678.19
2017-10-09T21:30:53.408Z,100675.20
2017-10-09T21:33:27.962Z,100683.24
2017-10-09T21:36:02.623Z,100674.33
2017-10-09T21:38:37.501Z,100672.22
2017-10-09T21:41:12.906Z,100676.57
2017-10-09T21:43:52.566Z,100677.77
2017-10-09T21:46:27.202Z,100672.33
2017-10-09T21:49:01.604Z,100677.91
2017-10-09T21:51:38.011Z,100678.34
2017-10-09T21:54:12.964Z,100678.38
2017-10-09T21:56:48.535Z,100679.63
2017-10-09T21:59:23.339Z,100671.98
2017-10-09T22:01:59.710Z,100672.87
2017-10-09T22:04:34.639Z,100676.61
2017-10-09T22:07:10.406Z,100678.70
2017-10-09T22:09:45.831Z,100679.92
2017-10-09T22:12:21.574Z,100671.70
2017-10-09T22:14:56.262Z,100682.41
2017-10-09T22:17:32.032Z,100674.33
2017-10-09T22:20:07.425Z,100678.16
2017-10-09T22:22:42.147Z,100672.66
2017-10-09T22:25:17.551Z,100670.65
2017-10-09T22:27:53.226Z,100676.56
2017-10-09T22:30:28.339Z,100677.34
2017-10-09T22:33:03.173Z,100677.75
2017-10-09T22:35:39.240Z,100676.48
2017-10-09T22:38:14.734Z,100680.72
2017-10-09T22:40:49.581Z,100674.36
2017-10-09T22:43:24.440Z,100677.83
2017-10-09T22:45:59.813Z,100679.02
2017-10-09T22:48:34.773Z,100684.98
2017-10-09T22:51:10.106Z,100686.27
2017-10-09T22:53:45.133Z,100679.84
2017-10-09T22:56:19.646Z,100677.03
2017-10-09T22:58:54.371Z,100672.75
2017-10-09T23:01:29.027Z,100676.18
2017-10-09T23:04:03.670Z,100675.00
2017-10-09T23:06:39.066Z,100670.04
2017-10-09T23:09:14.416Z,100671.67
2017-10-09T23:11:49.408Z,100666.98
2017-10-09T23:14:27.214Z,100665.22
2017-10-09T23:17:02.360Z,100666.03
2017-10-09T23:19:37.881Z,100664.77
2017-10-09T23:22:12.396Z,100660.08
2017-10-09T23:24:47.951Z,100667.31
2017-10-09T23:27:23.420Z,100668.61
2017-10-09T23:29:55.378Z,100665.64
2017-10-09T23:32:30.505Z,100661.34
2017-10-09T23:35:09.425Z,100661.70
2017-10-09T23:37:44.886Z,100655.28
2017-10-09T23:40:19.557Z,100659.49
2017-10-09T23:42:54.863Z,100653.95
2017-10-09T23:45:29.709Z,100659.56
2017-10-09T23:48:04.816Z,100658.34
2017-10-09T23:50:39.739Z,100657.89
2017-10-09T23:53:14.160Z,100649.39
2017-10-09T23:55:49.045Z,100652.42
2017-10-09T23:58:24.237Z,100649.04
